createdAt,value
2022-12-08T00:03:17.619Z,76.09
2022-12-08T00:08:39.238Z,75.84
2022-12-08T00:13:42.943Z,76.08
2022-12-08T00:18:45.564Z,75.72
2022-12-08T00:23:50.226Z,75.36
2022-12-08T00:28:55.974Z,75.63
2022-12-08T00:34:00.728Z,75.06
2022-12-08T00:39:03.251Z,75.05
2022-12-08T00:44:09.763Z,74.77
2022-12-08T00:49:11.950Z,74.69
2022-12-08T00:54:17.043Z,75.24
2022-12-08T00:59:24.028Z,74.86
2022-12-08T01:04:39.701Z,74.16
2022-12-08T01:09:41.633Z,74.11
2022-12-08T01:14:45.606Z,74.54
2022-12-08T01:19:50.811Z,74.74
2022-12-08T01:24:55.053Z,74.84
2022-12-08T01:30:00.186Z,74.68
2022-12-08T01:35:09.762Z,74.92
2022-12-08T01:40:15.113Z,74.62
2022-12-08T01:45:58.235Z,74.92
2022-12-08T01:51:05.382Z,74.72
2022-12-08T01:56:13.744Z,74.71
2022-12-08T02:05:25.033Z,75.19
2022-12-08T02:10:33.915Z,74.64
2022-12-08T02:16:24.678Z,75.63
2022-12-08T02:21:58.089Z,74.94
2022-12-08T02:27:26.628Z,75.11
2022-12-08T02:33:07.725Z,75.42
2022-12-08T02:38:54.223Z,75.63
2022-12-08T02:44:32.225Z,75.67
2022-12-08T02:49:40.136Z,75.31
2022-12-08T02:54:46.307Z,75.46
2022-12-08T03:00:36.268Z,75.68
2022-12-08T03:06:17.625Z,75.82
2022-12-08T03:11:31.207Z,75.24
2022-12-08T03:16:42.879Z,75.15
2022-12-08T03:21:53.006Z,74.33
2022-12-08T03:27:19.878Z,74.78
2022-12-08T03:32:47.938Z,74.66
2022-12-08T03:37:53.536Z,74.63
2022-12-08T03:43:04.512Z,73.98
2022-12-08T03:48:11.040Z,74.81
2022-12-08T03:53:13.936Z,74.07
2022-12-08T03:58:21.029Z,73.97
2022-12-08T04:03:23.524Z,73.94
2022-12-08T04:08:28.217Z,73.86
2022-12-08T04:13:33.647Z,73.77
2022-12-08T04:18:44.683Z,74.79
2022-12-08T04:23:49.282Z,74.82
2022-12-08T04:28:51.980Z,74.19
2022-12-08T04:34:00.316Z,74.54
2022-12-08T04:39:06.845Z,74.86
2022-12-08T04:44:11.837Z,74.55
2022-12-08T04:49:13.664Z,74.82
2022-12-08T04:54:18.143Z,74.55
2022-12-08T04:59:21.921Z,74.96
2022-12-08T05:04:28.719Z,74.72
2022-12-08T05:13:41.602Z,74.54
2022-12-08T05:33:25.597Z,74.43
2022-12-08T05:38:27.516Z,74.87
2022-12-08T05:43:29.567Z,75.03
2022-12-08T05:48:31.574Z,74.85
2022-12-08T05:53:33.504Z,75.00
2022-12-08T05:58:35.370Z,75.55
2022-12-08T06:03:37.240Z,75.37
2022-12-08T06:08:39.207Z,75.03
2022-12-08T06:13:41.091Z,75.22
2022-12-08T06:18:45.845Z,75.20
2022-12-08T06:23:52.596Z,75.87
2022-12-08T06:28:54.611Z,75.83
2022-12-08T06:33:56.539Z,75.42
2022-12-08T06:38:59.986Z,75.40
2022-12-08T06:44:01.989Z,75.31
2022-12-08T06:49:03.945Z,75.46
2022-12-08T06:54:06.108Z,75.44
2022-12-08T06:59:07.962Z,75.04
2022-12-08T07:04:09.944Z,75.42
2022-12-08T07:09:12.038Z,75.40
2022-12-08T07:14:14.065Z,75.19
2022-12-08T07:19:18.562Z,75.81
2022-12-08T07:24:20.616Z,75.20
2022-12-08T07:29:26.215Z,75.49
2022-12-08T07:34:28.528Z,75.36
2022-12-08T07:39:30.933Z,75.41
2022-12-08T07:44:35.961Z,75.18
2022-12-08T07:49:41.558Z,76.03
2022-12-08T07:54:43.568Z,75.78
2022-12-08T07:59:45.530Z,75.22
2022-12-08T08:04:50.881Z,75.54
2022-12-08T08:09:54.742Z,75.71
2022-12-08T08:14:57.055Z,75.93
2022-12-08T08:19:59.515Z,75.38
2022-12-08T08:25:01.490Z,75.08
2022-12-08T08:30:04.821Z,74.85
2022-12-08T08:35:11.953Z,74.18
2022-12-08T08:40:14.123Z,72.45
2022-12-08T08:45:16.236Z,69.40
2022-12-08T08:50:18.329Z,67.17
2022-12-08T08:55:29.665Z,65.26
2022-12-08T09:00:35.231Z,63.28
2022-12-08T09:05:42.084Z,63.22
2022-12-08T09:10:44.560Z,62.31
2022-12-08T09:15:47.510Z,61.05
2022-12-08T09:20:49.534Z,60.01
2022-12-08T09:25:51.550Z,59.43
2022-12-08T09:30:53.634Z,59.05
2022-12-08T09:35:55.784Z,59.02
2022-12-08T09:40:58.094Z,56.00
2022-12-08T09:46:01.812Z,59.08
2022-12-08T09:51:05.610Z,58.46
2022-12-08T09:56:21.972Z,56.97
2022-12-08T10:01:29.056Z,57.38
2022-12-08T10:06:41.668Z,58.03
2022-12-08T10:12:20.987Z,56.23
2022-12-08T10:17:34.588Z,58.10
2022-12-08T10:22:41.268Z,60.62
2022-12-08T10:27:51.538Z,61.15
2022-12-08T10:32:59.064Z,62.58
2022-12-08T10:38:01.772Z,62.12
2022-12-08T10:43:05.980Z,63.86
2022-12-08T10:48:16.774Z,63.85
2022-12-08T10:53:30.452Z,64.15
2022-12-08T10:58:37.230Z,64.67
2022-12-08T11:03:45.426Z,65.47
2022-12-08T11:08:58.816Z,65.85
2022-12-08T11:14:08.090Z,66.23
2022-12-08T11:19:16.353Z,66.60
2022-12-08T11:24:29.257Z,66.50
2022-12-08T11:29:37.645Z,66.52
2022-12-08T11:34:52.151Z,66.78
2022-12-08T11:39:58.286Z,67.10
2022-12-08T11:45:07.804Z,67.09
2022-12-08T11:50:29.764Z,67.68
2022-12-08T11:55:48.136Z,68.17
2022-12-08T12:00:51.716Z,68.45
2022-12-08T12:06:53.009Z,68.52
2022-12-08T12:12:20.764Z,68.66
2022-12-08T12:17:51.141Z,69.02
2022-12-08T12:23:01.696Z,69.43
2022-12-08T12:28:08.049Z,69.87
2022-12-08T12:33:16.494Z,70.67
2022-12-08T12:38:54.593Z,72.20
2022-12-08T12:44:15.338Z,73.93
2022-12-08T12:49:43.990Z,75.31
2022-12-08T12:54:52.586Z,75.13
2022-12-08T13:00:05.046Z,74.92
2022-12-08T13:05:27.449Z,76.24
2022-12-08T13:10:33.959Z,76.53
2022-12-08T13:15:41.962Z,78.25
2022-12-08T13:20:50.605Z,78.51
2022-12-08T13:26:08.029Z,78.68
2022-12-08T13:31:48.551Z,81.13
2022-12-08T13:36:52.831Z,79.93
2022-12-08T13:42:02.747Z,81.02
2022-12-08T13:47:32.942Z,80.93
2022-12-08T13:57:59.575Z,81.29
2022-12-08T14:03:02.460Z,81.56
2022-12-08T14:08:30.056Z,82.95
2022-12-08T14:13:37.934Z,86.52
2022-12-08T14:18:40.150Z,84.83
2022-12-08T14:23:44.346Z,85.17
2022-12-08T14:28:49.780Z,85.56
2022-12-08T14:33:56.369Z,86.14
2022-12-08T14:38:59.153Z,86.76
2022-12-08T14:44:02.361Z,88.05
2022-12-08T14:49:04.488Z,90.54
2022-12-08T14:54:13.491Z,91.75
2022-12-08T14:59:30.553Z,90.11
2022-12-08T15:04:32.901Z,92.47
2022-12-08T15:09:34.995Z,94.33
2022-12-08T15:14:41.958Z,91.85
2022-12-08T15:19:58.566Z,92.19
2022-12-08T15:25:01.073Z,92.04
2022-12-08T15:30:03.597Z,91.89
2022-12-08T15:35:06.679Z,91.87
2022-12-08T15:40:17.993Z,92.65
2022-12-08T15:45:26.456Z,92.35
2022-12-08T15:50:28.491Z,91.91
2022-12-08T15:55:33.087Z,92.06
2022-12-08T16:00:52.401Z,92.73
2022-12-08T16:06:44.282Z,92.75
2022-12-08T16:12:05.305Z,92.63
2022-12-08T16:17:03.221Z,93.99
2022-12-08T16:28:05.234Z,93.17
2022-12-08T16:33:15.022Z,93.18
2022-12-08T16:38:17.010Z,95.22
2022-12-08T16:43:19.386Z,93.70
2022-12-08T16:48:22.623Z,93.45
2022-12-08T16:53:24.837Z,93.17
2022-12-08T16:58:28.125Z,93.19
2022-12-08T17:03:35.958Z,92.91
2022-12-08T17:08:38.915Z,93.60
2022-12-08T17:13:41.975Z,93.33
2022-12-08T17:18:44.269Z,93.02
2022-12-08T17:23:46.792Z,95.05
2022-12-08T17:29:04.033Z,94.11
2022-12-08T17:34:11.083Z,93.47
2022-12-08T17:39:18.481Z,93.07
2022-12-08T17:44:21.233Z,93.00
2022-12-08T17:49:25.738Z,93.58
2022-12-08T17:54:29.013Z,93.81
2022-12-08T17:59:31.412Z,93.86
2022-12-08T18:04:33.387Z,94.35
2022-12-08T18:09:35.396Z,94.65
2022-12-08T18:15:02.399Z,95.46
2022-12-08T18:20:05.766Z,94.92
2022-12-08T18:25:08.994Z,94.95
2022-12-08T18:30:17.852Z,95.19
2022-12-08T18:35:20.009Z,94.64
2022-12-08T18:40:22.581Z,94.23
2022-12-08T18:45:24.794Z,94.19
2022-12-08T18:50:26.601Z,95.16
2022-12-08T18:55:31.386Z,94.42
2022-12-08T19:00:42.642Z,94.21
2022-12-08T19:05:44.741Z,94.53
2022-12-08T19:10:46.726Z,93.97
2022-12-08T19:15:48.819Z,94.04
2022-12-08T19:20:56.912Z,94.45
2022-12-08T19:25:59.246Z,95.67
2022-12-08T19:31:05.384Z,99.05
2022-12-08T19:36:13.753Z,97.58
2022-12-08T19:41:34.863Z,98.38
2022-12-08T19:46:40.367Z,99.24
2022-12-08T19:51:42.965Z,100.00
2022-12-08T19:56:45.059Z,100.00
2022-12-08T20:01:54.003Z,100.00
2022-12-08T20:06:59.334Z,100.00
2022-12-08T20:12:01.287Z,100.00
2022-12-08T20:17:03.286Z,100.00
2022-12-08T20:22:09.080Z,100.00
2022-12-08T20:27:11.141Z,100.00
2022-12-08T20:32:13.287Z,100.00
2022-12-08T20:37:15.420Z,100.00
2022-12-08T20:42:25.140Z,100.00
2022-12-08T20:47:27.417Z,100.00
2022-12-08T20:52:29.376Z,100.00
2022-12-08T20:57:31.515Z,100.00
2022-12-08T21:02:33.744Z,100.00
2022-12-08T21:07:36.000Z,100.00
2022-12-08T21:12:38.033Z,100.00
2022-12-08T21:17:40.104Z,100.00
2022-12-08T21:22:46.784Z,100.00
2022-12-08T21:27:48.972Z,100.00
2022-12-08T21:32:51.118Z,100.00
2022-12-08T21:37:53.272Z,100.00
2022-12-08T21:42:55.423Z,100.00
2022-12-08T21:47:59.532Z,100.00
2022-12-08T21:53:03.481Z,100.00
2022-12-08T21:58:05.945Z,100.00
2022-12-08T22:03:13.075Z,100.00
2022-12-08T22:08:15.361Z,100.00
2022-12-08T22:13:17.486Z,100.00
2022-12-08T22:18:19.611Z,100.00
2022-12-08T22:23:21.711Z,100.00
2022-12-08T22:28:23.606Z,100.00
2022-12-08T22:33:25.638Z,100.00
2022-12-08T22:38:31.126Z,100.00
2022-12-08T22:43:34.636Z,100.00
2022-12-08T22:48:40.089Z,100.00
2022-12-08T22:53:42.397Z,100.00
2022-12-08T22:58:44.539Z,100.00
2022-12-08T23:03:46.941Z,100.00
2022-12-08T23:08:49.429Z,100.00
2022-12-08T23:13:52.232Z,100.00
2022-12-08T23:18:54.542Z,100.00
2022-12-08T23:23:56.719Z,100.00
2022-12-08T23:28:59.566Z,100.00
2022-12-08T23:34:04.487Z,100.00
2022-12-08T23:39:06.847Z,100.00
2022-12-08T23:44:11.996Z,100.00
2022-12-08T23:49:14.743Z,100.00
2022-12-08T23:54:17.095Z,100.00
2022-12-08T23:59:18.865Z,100.00
